RJDT(METAR)
05/24 13:00
METAR RJDT 240400Z VRB07KT CAVOK 28/09 Q1013 RMK A2993=
戻る
トップページへ戻る
IMOC Co,.Ltd.